createdAt,value
2023-05-05T19:16:24.544Z,43.34
2023-05-05T19:17:24.592Z,43.67
2023-05-05T19:18:24.540Z,43.51
2023-05-05T19:19:24.502Z,42.70
2023-05-05T19:20:24.527Z,42.22
2023-05-05T19:21:24.512Z,44.79
2023-05-05T19:22:24.538Z,42.54
2023-05-05T19:23:24.469Z,43.83
2023-05-05T19:24:24.489Z,43.18
2023-05-05T19:25:24.469Z,43.34
2023-05-05T19:26:24.473Z,41.73
2023-05-05T19:27:24.484Z,41.73
2023-05-05T19:28:24.440Z,42.86
2023-05-05T19:29:24.454Z,44.79
2023-05-05T19:30:24.459Z,44.15
2023-05-05T19:31:24.579Z,42.06
2023-05-05T19:32:24.467Z,43.34
2023-05-05T19:33:24.453Z,43.83
2023-05-05T19:34:24.404Z,42.22
2023-05-05T19:35:24.411Z,42.54
2023-05-05T19:36:24.397Z,42.38
2023-05-05T19:37:24.439Z,44.31
2023-05-05T19:38:24.416Z,45.60
2023-05-05T19:39:24.349Z,44.79
2023-05-05T19:40:24.383Z,45.92
2023-05-05T19:41:24.365Z,43.51
2023-05-05T19:42:24.337Z,43.34
2023-05-05T19:43:24.384Z,42.38
2023-05-05T19:44:24.896Z,42.54
2023-05-05T19:45:24.324Z,43.34
2023-05-05T19:46:24.462Z,43.02
2023-05-05T19:47:24.455Z,43.34
2023-05-05T19:48:24.839Z,40.77
2023-05-05T19:49:24.317Z,42.86
2023-05-05T19:50:24.342Z,42.38
2023-05-05T19:51:24.318Z,42.22
2023-05-05T19:52:24.264Z,43.51
2023-05-05T19:53:24.299Z,50.11
2023-05-05T19:54:24.856Z,47.21
2023-05-05T19:55:28.986Z,45.44
2023-05-05T19:56:25.380Z,49.79
2023-05-05T19:57:24.927Z,52.69
2023-05-05T19:58:24.794Z,52.85
2023-05-05T19:59:24.237Z,52.21
2023-05-05T20:00:24.213Z,50.11
2023-05-05T20:01:24.293Z,49.63
2023-05-05T20:02:24.324Z,50.43
2023-05-05T20:03:24.338Z,52.21
2023-05-05T20:04:24.248Z,54.30
2023-05-05T20:05:24.200Z,56.07
2023-05-05T20:06:24.202Z,56.07
2023-05-05T20:07:24.155Z,55.91
2023-05-05T20:08:24.225Z,52.85
2023-05-05T20:09:24.202Z,55.11
2023-05-05T20:10:24.253Z,55.59
2023-05-05T20:11:24.160Z,54.62
2023-05-05T20:12:24.193Z,55.11
2023-05-05T20:13:24.192Z,54.30
2023-05-05T20:14:24.142Z,56.07
2023-05-05T20:15:24.160Z,54.79
2023-05-05T20:16:24.298Z,56.88
2023-05-05T20:17:24.137Z,53.01
2023-05-05T20:18:24.190Z,53.01
2023-05-05T20:19:24.150Z,53.82
2023-05-05T20:20:24.105Z,52.69
2023-05-05T20:21:24.106Z,52.69
2023-05-05T20:22:24.107Z,54.46
2023-05-05T20:23:24.171Z,53.82
2023-05-05T20:24:24.089Z,53.01
2023-05-05T20:25:24.212Z,52.21
2023-05-05T20:26:24.047Z,47.70
2023-05-05T20:27:25.895Z,48.02
2023-05-05T20:28:24.091Z,51.40
2023-05-05T20:29:24.033Z,52.85
2023-05-05T20:30:24.007Z,52.05
2023-05-05T20:31:24.049Z,49.15
2023-05-05T20:32:24.041Z,48.18
2023-05-05T20:33:23.977Z,48.18
2023-05-05T20:34:24.019Z,44.96
2023-05-05T20:35:24.072Z,44.63
2023-05-05T20:36:23.956Z,42.70
2023-05-05T20:37:23.997Z,42.86
2023-05-05T20:38:23.965Z,43.99
2023-05-05T20:39:23.948Z,43.51
2023-05-05T20:40:23.943Z,43.02
2023-05-05T20:41:23.944Z,45.28
2023-05-05T20:42:23.969Z,43.18
2023-05-05T20:43:23.956Z,42.06
2023-05-05T20:44:23.918Z,42.54
2023-05-05T20:45:23.923Z,40.93
2023-05-05T20:46:23.962Z,41.25
2023-05-05T20:47:23.998Z,42.54
2023-05-05T20:48:23.930Z,41.57
2023-05-05T20:49:23.929Z,41.09
2023-05-05T20:50:23.916Z,41.41
2023-05-05T20:51:23.974Z,41.41
2023-05-05T20:52:23.935Z,41.41
2023-05-05T20:53:23.861Z,41.09
2023-05-05T20:54:23.843Z,41.57
2023-05-05T20:55:23.909Z,41.25
2023-05-05T20:56:23.942Z,40.93
2023-05-05T20:57:23.849Z,41.09
2023-05-05T20:58:23.898Z,41.57
2023-05-05T20:59:23.841Z,41.09
2023-05-05T21:00:23.872Z,40.44
2023-05-05T21:01:23.881Z,40.93
2023-05-05T21:02:23.883Z,41.09
2023-05-05T21:03:23.812Z,41.25
2023-05-05T21:04:23.789Z,42.22
2023-05-05T21:05:23.807Z,42.22
2023-05-05T21:06:23.791Z,41.25
2023-05-05T21:07:23.824Z,40.77
2023-05-05T21:08:23.783Z,41.09
2023-05-05T21:09:23.796Z,40.93
2023-05-05T21:10:23.804Z,40.93
2023-05-05T21:11:23.737Z,41.09
2023-05-05T21:12:23.836Z,40.61
2023-05-05T21:13:23.782Z,41.25
2023-05-05T21:14:23.796Z,40.77
2023-05-05T21:15:23.774Z,41.57
2023-05-05T21:16:23.790Z,41.57
2023-05-05T21:17:23.733Z,40.93
2023-05-05T21:18:23.682Z,40.44
2023-05-05T21:19:23.687Z,41.09
2023-05-05T21:20:23.665Z,40.77
2023-05-05T21:21:23.653Z,40.93
2023-05-05T21:22:23.670Z,41.09
2023-05-05T21:23:23.723Z,40.77
2023-05-05T21:24:23.658Z,41.25
2023-05-05T21:25:23.645Z,41.89
2023-05-05T21:26:23.713Z,40.44
2023-05-05T21:27:23.630Z,40.77
2023-05-05T21:28:23.683Z,41.09
2023-05-05T21:29:23.585Z,41.41
2023-05-05T21:30:23.642Z,40.61
2023-05-05T21:31:23.587Z,40.61
2023-05-05T21:32:23.831Z,41.09
2023-05-05T21:33:23.635Z,40.28
2023-05-05T21:34:24.618Z,40.12
2023-05-05T21:35:23.626Z,42.22
2023-05-05T21:36:23.599Z,41.25
2023-05-05T21:37:23.591Z,42.38
2023-05-05T21:38:23.561Z,40.61
2023-05-05T21:39:23.600Z,42.54
2023-05-05T21:40:23.578Z,42.06
2023-05-05T21:41:23.563Z,43.34
2023-05-05T21:42:23.545Z,42.70
2023-05-05T21:43:23.494Z,43.99
2023-05-05T21:44:23.569Z,42.70
2023-05-05T21:45:23.544Z,40.28
2023-05-05T21:46:23.616Z,40.28
2023-05-05T21:47:23.596Z,41.89
2023-05-05T21:48:23.475Z,41.73
2023-05-05T21:49:23.515Z,42.54
2023-05-05T21:50:23.488Z,41.57
2023-05-05T21:51:23.465Z,41.41
2023-05-05T21:52:23.425Z,41.41
2023-05-05T21:53:23.469Z,41.89
2023-05-05T21:54:23.447Z,42.06
2023-05-05T21:55:23.405Z,41.25
2023-05-05T21:56:23.447Z,40.61
2023-05-05T21:57:23.459Z,40.44
2023-05-05T21:58:23.390Z,40.77
2023-05-05T21:59:23.387Z,40.93
2023-05-05T22:00:23.417Z,40.12
2023-05-05T22:01:23.467Z,39.48
2023-05-05T22:02:23.477Z,40.44
2023-05-05T22:03:23.470Z,40.61
2023-05-05T22:04:23.357Z,41.09
2023-05-05T22:05:23.376Z,41.57
2023-05-05T22:06:23.391Z,41.89
2023-05-05T22:07:23.343Z,42.38
2023-05-05T22:08:23.322Z,43.34
2023-05-05T22:09:23.303Z,42.38
2023-05-05T22:10:23.323Z,41.89
2023-05-05T22:11:23.296Z,40.77
2023-05-05T22:12:23.403Z,41.25
2023-05-05T22:13:23.485Z,42.22
2023-05-05T22:14:23.274Z,42.22
2023-05-05T22:15:25.374Z,40.77
2023-05-05T22:16:23.421Z,40.12
2023-05-05T22:17:23.259Z,41.25
2023-05-05T22:18:23.252Z,41.25
2023-05-05T22:19:23.283Z,42.22
2023-05-05T22:20:23.294Z,41.57
2023-05-05T22:21:23.240Z,43.18
2023-05-05T22:22:23.233Z,42.06
2023-05-05T22:23:23.199Z,44.31
2023-05-05T22:24:23.224Z,42.38
2023-05-05T22:25:23.256Z,41.89
2023-05-05T22:26:23.235Z,42.86
2023-05-05T22:27:23.174Z,41.89
2023-05-05T22:28:23.195Z,42.06
2023-05-05T22:29:23.170Z,41.09
2023-05-05T22:30:23.183Z,41.89
2023-05-05T22:31:23.217Z,41.25
2023-05-05T22:32:23.183Z,42.38
2023-05-05T22:33:23.158Z,42.86
2023-05-05T22:34:23.140Z,42.54
2023-05-05T22:35:23.170Z,42.38
2023-05-05T22:36:23.122Z,44.31
2023-05-05T22:37:23.119Z,42.54
2023-05-05T22:38:23.156Z,41.25
2023-05-05T22:39:23.103Z,41.57
2023-05-05T22:40:23.096Z,41.89
2023-05-05T22:41:23.101Z,42.86
2023-05-05T22:42:23.099Z,43.34
2023-05-05T22:43:23.099Z,40.93
2023-05-05T22:44:23.052Z,40.77
2023-05-05T22:45:23.104Z,40.61
2023-05-05T22:46:23.100Z,42.22
2023-05-05T22:47:23.110Z,40.93
2023-05-05T22:48:23.040Z,41.41
2023-05-05T22:49:23.119Z,40.61
2023-05-05T22:50:22.995Z,41.09
2023-05-05T22:51:23.029Z,41.57
2023-05-05T22:52:23.053Z,41.89
2023-05-05T22:53:23.005Z,41.89
2023-05-05T22:54:23.012Z,41.89
2023-05-05T22:55:22.960Z,41.57
2023-05-05T22:56:22.994Z,43.18
2023-05-05T22:57:22.993Z,44.79
2023-05-05T22:58:22.922Z,42.86
2023-05-05T22:59:23.038Z,42.38
2023-05-05T23:00:22.953Z,41.25
2023-05-05T23:01:23.098Z,40.12
2023-05-05T23:02:22.965Z,41.57
2023-05-05T23:03:22.974Z,41.25
2023-05-05T23:04:22.927Z,40.44
2023-05-05T23:05:22.883Z,40.93
2023-05-05T23:06:22.965Z,40.44
2023-05-05T23:07:22.912Z,42.54
2023-05-05T23:08:22.855Z,41.41
2023-05-05T23:09:22.851Z,40.77
2023-05-05T23:10:22.874Z,42.38
2023-05-05T23:11:22.903Z,41.09
2023-05-05T23:12:22.854Z,41.57
2023-05-05T23:13:23.883Z,42.70
2023-05-05T23:14:22.821Z,42.22
2023-05-05T23:15:22.869Z,42.06
2023-05-05T23:16:22.896Z,41.41
2023-05-05T23:17:22.851Z,40.61
2023-05-05T23:18:22.813Z,44.31
2023-05-05T23:19:22.790Z,41.89
2023-05-05T23:20:22.779Z,42.70
2023-05-05T23:21:22.791Z,40.93
2023-05-05T23:22:22.803Z,41.09
2023-05-05T23:23:22.801Z,41.09
2023-05-05T23:24:22.789Z,43.18
2023-05-05T23:25:22.755Z,41.89
2023-05-05T23:26:22.805Z,44.15
2023-05-05T23:27:22.744Z,42.38
2023-05-05T23:28:22.756Z,42.54
2023-05-05T23:29:22.753Z,40.93
2023-05-05T23:30:22.746Z,42.06
2023-05-05T23:31:22.841Z,43.34
2023-05-05T23:32:22.684Z,42.54
2023-05-05T23:33:22.702Z,43.18
2023-05-05T23:34:22.695Z,41.41
2023-05-05T23:35:22.695Z,40.44
2023-05-05T23:36:22.676Z,43.99
2023-05-05T23:37:22.662Z,41.73
2023-05-05T23:38:22.691Z,41.41
2023-05-05T23:39:22.680Z,42.38
2023-05-05T23:40:22.662Z,41.41
2023-05-05T23:41:22.628Z,40.44
2023-05-05T23:42:22.625Z,40.61
2023-05-05T23:43:23.614Z,44.31
2023-05-05T23:44:22.625Z,43.34
2023-05-05T23:45:22.645Z,40.61
2023-05-05T23:46:22.683Z,40.93
2023-05-05T23:47:22.588Z,40.44
2023-05-05T23:48:22.666Z,42.38
2023-05-05T23:49:22.630Z,41.41
2023-05-05T23:50:23.587Z,41.41
2023-05-05T23:51:22.580Z,40.28
2023-05-05T23:52:22.563Z,39.96
2023-05-05T23:53:22.586Z,41.41
2023-05-05T23:54:22.531Z,40.93
2023-05-05T23:55:22.543Z,40.61
2023-05-05T23:56:22.499Z,40.61
2023-05-05T23:57:22.541Z,41.41
2023-05-05T23:58:22.496Z,41.89
2023-05-05T23:59:22.469Z,44.63
